Terminal Aerodrome Forecast
Issued by NWS Charleston, WV

Current Version | Previous Version | Text Only | Print | Product List | Glossary Off
Versions: 1 2 3 4 5 6 7 8 9 10 11 12 13 14 15 16 17 18 19 20 21 22 23 24 25 26 27

000
FTUS41 KRLX 180500
TAFBKW
TAF
KBKW 180525Z 1806/1906 00000KT 6SM BR SCT012 SCT025
     FM180800 00000KT 4SM BR BKN012
     FM181000 00000KT 3SM BR BKN008
     FM181400 00000KT P6SM BKN015
     FM181600 00000KT P6SM SCT030
     FM182100 35005KT P6SM BKN030
     FM182200 36004KT P6SM SCT140=

USA.gov is the U.S. government's official web portal to all federal, state and local government web resources and services.